Time;durP1;ratioP1;P1;durP2;ratioP2;P2;SDS_P1;SDS_P2;PMS_P1;PMS_P2;Temp;Humidity;BMP_temperature;BMP_pressure;BME280_temperature;BME280_humidity;BME280_pressure;Samples;Min_cycle;Max_cycle;Signal;HPM_P1;HPM_P2
2022/02/27 00:02:17;;;;;;;11.27;5.50;;;;;;;4.28;59.35;96880.13;5029162;28;20229;-81
2022/02/27 00:04:44;;;;;;;10.40;5.50;;;;;;;4.35;59.05;96877.06;5028602;28;20226;-80
2022/02/27 00:07:10;;;;;;;10.47;5.50;;;;;;;4.39;59.10;96883.56;5029842;28;20229;-81
2022/02/27 00:09:37;;;;;;;10.73;6.40;;;;;;;4.36;59.03;96876.13;5029720;28;20197;-81
2022/02/27 00:12:04;;;;;;;9.77;6.03;;;;;;;4.30;59.26;96885.94;5029120;28;20190;-81
2022/02/27 00:14:30;;;;;;;11.80;6.60;;;;;;;4.27;59.14;96883.59;5029540;28;20226;-81
2022/02/27 00:16:58;;;;;;;13.37;6.87;;;;;;;4.26;59.19;96879.41;5029821;28;20216;-81
2022/02/27 00:19:24;;;;;;;14.37;6.37;;;;;;;4.24;59.15;96879.50;5028721;28;20201;-81
2022/02/27 00:21:51;;;;;;;10.00;5.77;;;;;;;4.21;59.58;96881.47;5029598;28;20195;-81
2022/02/27 00:24:18;;;;;;;10.77;5.60;;;;;;;4.23;59.58;96880.47;5029387;28;20214;-81
2022/02/27 00:26:44;;;;;;;9.03;5.30;;;;;;;4.13;60.02;96882.00;5029172;28;20304;-81
2022/02/27 00:29:11;;;;;;;14.43;5.80;;;;;;;4.14;59.72;96878.53;5029712;28;20218;-81
2022/02/27 00:31:37;;;;;;;8.70;5.40;;;;;;;3.98;60.42;96883.03;5028769;28;20198;-81
2022/02/27 00:34:05;;;;;;;8.97;5.40;;;;;;;3.88;61.30;96884.56;5029153;28;20305;-81
2022/02/27 00:36:32;;;;;;;11.57;5.83;;;;;;;3.65;62.07;96884.41;5029090;28;20275;-81
2022/02/27 00:38:58;;;;;;;7.47;5.00;;;;;;;3.76;62.23;96888.75;5029603;28;20202;-81
2022/02/27 00:41:25;;;;;;;8.37;4.53;;;;;;;3.91;62.20;96892.81;5029109;28;20734;-81
2022/02/27 00:43:51;;;;;;;9.97;4.83;;;;;;;4.07;61.02;96893.41;5029143;28;20612;-81
2022/02/27 00:46:18;;;;;;;6.47;4.40;;;;;;;4.15;61.57;96891.16;5029001;28;20218;-81
2022/02/27 00:48:45;;;;;;;9.90;4.20;;;;;;;4.17;61.88;96888.50;5029460;28;20606;-81
2022/02/27 00:51:12;;;;;;;12.83;4.57;;;;;;;4.23;61.34;96880.47;5029292;28;20222;-81
2022/02/27 00:53:39;;;;;;;7.27;4.67;;;;;;;4.31;61.59;96880.72;5028981;28;20225;-78
2022/02/27 00:56:06;;;;;;;7.10;4.07;;;;;;;4.32;61.71;96876.44;5029330;28;20256;-79
2022/02/27 00:58:32;;;;;;;7.00;4.20;;;;;;;4.35;61.56;96877.06;5028788;28;20198;-79
2022/02/27 01:00:59;;;;;;;6.43;4.10;;;;;;;4.38;61.11;96879.41;5028836;28;20676;-79
2022/02/27 01:03:25;;;;;;;7.60;4.20;;;;;;;4.30;61.90;96874.00;5027979;28;20230;-79
2022/02/27 01:05:51;;;;;;;9.40;4.57;;;;;;;4.37;61.50;96879.50;5029453;28;20220;-79
2022/02/27 01:08:19;;;;;;;7.17;4.50;;;;;;;4.45;61.63;96872.09;5028779;28;20248;-79
2022/02/27 01:10:46;;;;;;;8.03;4.23;;;;;;;4.49;61.50;96882.00;5028531;28;20202;-79
2022/02/27 01:13:12;;;;;;;6.23;3.90;;;;;;;4.47;61.82;96870.28;5028834;28;20238;-79
2022/02/27 01:15:38;;;;;;;10.70;4.10;;;;;;;4.19;62.61;96862.94;5028790;28;20222;-79
2022/02/27 01:18:05;;;;;;;9.10;4.10;;;;;;;4.26;62.18;96862.38;5028905;28;20202;-79
2022/02/27 01:20:31;;;;;;;11.37;4.83;;;;;;;4.30;61.90;96862.97;5028433;28;20205;-79
2022/02/27 01:22:58;;;;;;;8.10;4.40;;;;;;;4.36;62.15;96873.59;5028317;28;20230;-78
2022/02/27 01:25:26;;;;;;;7.53;4.20;;;;;;;4.44;61.57;96873.84;5029295;28;20221;-79
2022/02/27 01:27:52;;;;;;;7.17;4.23;;;;;;;4.31;62.50;96870.53;5022796;28;20234;-79
2022/02/27 01:30:19;;;;;;;10.87;4.33;;;;;;;4.29;61.78;96867.28;5029410;28;20205;-78
2022/02/27 01:32:45;;;;;;;8.57;3.83;;;;;;;4.28;62.23;96864.81;5032461;28;20213;-79
2022/02/27 01:35:11;;;;;;;8.47;4.27;;;;;;;4.34;62.24;96867.78;5032626;28;20194;-79
2022/02/27 01:37:38;;;;;;;7.87;4.07;;;;;;;4.38;62.34;96865.81;5031538;28;21895;-79
2022/02/27 01:40:06;;;;;;;8.33;4.03;;;;;;;4.25;62.29;96865.03;5032263;28;20206;-79
2022/02/27 01:42:34;;;;;;;6.50;4.00;;;;;;;4.31;62.26;96867.16;5031540;28;20735;-79
2022/02/27 01:45:03;;;;;;;7.90;4.13;;;;;;;4.35;61.72;96866.84;5032428;28;20198;-79
2022/02/27 01:47:29;;;;;;;6.83;3.87;;;;;;;4.29;62.43;96867.28;5032207;28;20727;-79
2022/02/27 01:49:56;;;;;;;8.50;4.07;;;;;;;4.20;62.58;96862.81;5037696;28;20566;-80
2022/02/27 01:52:22;;;;;;;7.27;4.30;;;;;;;4.14;62.48;96861.50;5034075;28;20857;-79
2022/02/27 01:54:49;;;;;;;8.57;4.70;;;;;;;4.10;63.36;96857.53;5031825;28;20229;-79
2022/02/27 01:57:16;;;;;;;8.13;4.53;;;;;;;4.18;63.05;96867.22;5031980;28;20595;-79
2022/02/27 01:59:44;;;;;;;5.87;4.40;;;;;;;4.15;63.25;96863.13;5031925;28;20272;-79
2022/02/27 02:02:10;;;;;;;6.43;4.20;;;;;;;4.16;62.93;96856.28;5031439;28;20206;-79
2022/02/27 02:04:38;;;;;;;8.37;4.70;;;;;;;4.21;62.52;96845.78;5030684;28;20252;-79
2022/02/27 02:07:05;;;;;;;7.23;4.23;;;;;;;4.25;62.53;96845.44;5031925;28;20232;-78
2022/02/27 02:09:31;;;;;;;6.63;4.53;;;;;;;4.20;62.62;96854.34;5031629;28;20201;-79
2022/02/27 02:11:59;;;;;;;8.73;4.60;;;;;;;4.10;63.10;96843.97;5031599;28;20202;-79
2022/02/27 02:14:25;;;;;;;6.30;3.87;;;;;;;4.20;62.88;96849.25;5031428;28;20222;-79
2022/02/27 02:16:55;;;;;;;7.73;4.33;;;;;;;4.24;62.72;96856.56;5032005;28;20701;-79
2022/02/27 02:19:22;;;;;;;8.60;4.13;;;;;;;4.06;63.81;96848.47;5031441;28;20201;-79
2022/02/27 02:21:52;;;;;;;6.80;4.17;;;;;;;3.96;63.75;96847.47;5031199;28;20984;-79
2022/02/27 02:24:20;;;;;;;6.20;3.57;;;;;;;3.81;64.46;96849.34;5030832;28;20229;-78
2022/02/27 02:26:48;;;;;;;9.57;4.77;;;;;;;3.81;64.63;96851.06;5030437;28;20280;-79
2022/02/27 02:29:17;;;;;;;8.90;5.00;;;;;;;3.74;64.40;96843.00;5031838;28;20204;-79
2022/02/27 02:31:46;;;;;;;9.67;4.30;;;;;;;3.72;65.11;96846.56;5030918;28;20624;-79
2022/02/27 02:34:14;;;;;;;8.03;5.00;;;;;;;3.37;66.04;96843.84;5030306;28;20226;-78
2022/02/27 02:36:43;;;;;;;8.07;4.57;;;;;;;3.42;66.18;96841.81;5028387;28;20565;-79
2022/02/27 02:39:13;;;;;;;9.37;4.50;;;;;;;3.25;67.28;96845.47;5031206;28;20281;-79
2022/02/27 02:41:40;;;;;;;7.47;4.30;;;;;;;3.20;66.98;96837.31;5031104;28;20241;-80
2022/02/27 02:44:08;;;;;;;8.67;4.30;;;;;;;3.12;67.71;96839.53;5030255;28;20229;-79
2022/02/27 02:46:35;;;;;;;9.40;4.70;;;;;;;2.91;68.76;96823.09;5031197;28;20222;-78
2022/02/27 02:49:01;;;;;;;9.20;4.10;;;;;;;2.90;68.63;96834.19;5031050;28;20226;-79
2022/02/27 02:51:28;;;;;;;6.90;4.43;;;;;;;2.87;69.47;96829.31;5030591;28;20259;-79
2022/02/27 02:53:55;;;;;;;9.63;4.67;;;;;;;2.96;68.61;96827.00;5030900;28;20275;-79
2022/02/27 02:56:23;;;;;;;7.63;4.63;;;;;;;3.01;68.13;96831.78;5030859;28;20743;-79
2022/02/27 02:58:50;;;;;;;10.87;4.93;;;;;;;2.99;68.63;96821.72;5029791;28;20190;-79
2022/02/27 03:01:18;;;;;;;8.53;4.50;;;;;;;3.10;68.05;96823.53;5030968;28;20198;-79
2022/02/27 03:03:46;;;;;;;7.23;4.40;;;;;;;3.20;67.81;96816.94;5028912;28;20218;-79
2022/02/27 03:06:12;;;;;;;5.93;3.93;;;;;;;3.29;67.75;96811.25;5030642;28;20222;-79
2022/02/27 03:08:39;;;;;;;10.77;4.87;;;;;;;3.12;68.16;96819.16;5030871;28;20215;-79
2022/02/27 03:11:06;;;;;;;7.73;4.50;;;;;;;3.05;68.18;96823.88;5047492;28;20608;-79
2022/02/27 03:13:33;;;;;;;8.80;4.97;;;;;;;2.79;69.40;96824.72;5049008;28;20229;-79
2022/02/27 03:16:00;;;;;;;6.07;4.23;;;;;;;2.80;69.38;96828.09;5024581;28;20704;-79
2022/02/27 03:18:26;;;;;;;8.43;4.70;;;;;;;2.76;69.68;96817.28;5030216;28;20658;-79
2022/02/27 03:20:53;;;;;;;10.03;4.90;;;;;;;2.67;69.99;96822.97;5030082;28;20249;-79
2022/02/27 03:23:19;;;;;;;8.87;4.80;;;;;;;2.76;69.94;96820.66;5029844;28;20229;-78
2022/02/27 03:25:46;;;;;;;9.73;4.70;;;;;;;2.89;69.11;96819.84;5029818;28;20586;-79
2022/02/27 03:28:12;;;;;;;6.43;4.70;;;;;;;2.92;69.29;96815.38;5030458;28;20229;-79
2022/02/27 03:30:41;;;;;;;6.20;4.33;;;;;;;2.90;69.03;96817.19;5029975;28;20194;-79
2022/02/27 03:33:08;;;;;;;9.20;4.57;;;;;;;3.08;68.51;96821.09;5029721;28;20230;-79
2022/02/27 03:35:35;;;;;;;7.93;4.70;;;;;;;3.24;67.71;96820.13;5030152;28;20218;-79
2022/02/27 03:38:02;;;;;;;5.83;4.17;;;;;;;3.32;67.31;96826.31;5030414;28;20202;-79
2022/02/27 03:40:29;;;;;;;8.17;4.43;;;;;;;3.36;67.13;96822.66;5029657;28;20198;-79
2022/02/27 03:42:56;;;;;;;7.77;4.50;;;;;;;3.47;66.69;96829.56;5029521;28;20283;-79
2022/02/27 03:45:23;;;;;;;10.47;5.30;;;;;;;3.46;66.81;96826.22;5029972;28;20205;-78
2022/02/27 03:47:50;;;;;;;7.83;4.70;;;;;;;3.30;66.86;96824.78;5030091;28;20704;-79
2022/02/27 03:50:19;;;;;;;7.23;4.77;;;;;;;3.27;67.14;96825.00;5029839;28;20194;-79
2022/02/27 03:52:45;;;;;;;9.83;4.80;;;;;;;3.17;67.46;96826.50;5029182;28;20256;-79
2022/02/27 03:55:14;;;;;;;7.60;4.63;;;;;;;3.24;67.38;96827.75;5030252;28;20197;-79
2022/02/27 03:57:41;;;;;;;8.27;4.37;;;;;;;3.29;67.33;96821.41;5029944;28;20190;-80
2022/02/27 04:00:10;;;;;;;8.37;4.47;;;;;;;3.37;66.47;96826.84;5029594;28;20993;-79
2022/02/27 04:02:37;;;;;;;7.70;4.50;;;;;;;3.44;66.80;96817.06;5028782;28;20268;-79
2022/02/27 04:05:05;;;;;;;6.13;4.57;;;;;;;3.37;66.92;96824.28;5029360;28;20687;-79
2022/02/27 04:07:32;;;;;;;8.57;4.60;;;;;;;3.23;67.64;96826.13;5029202;28;20348;-78
2022/02/27 04:09:58;;;;;;;8.67;4.43;;;;;;;3.12;68.10;96820.00;5029668;28;20426;-79
2022/02/27 04:12:25;;;;;;;8.53;4.57;;;;;;;3.12;67.81;96822.53;5029343;28;20202;-78
2022/02/27 04:14:51;;;;;;;7.53;4.50;;;;;;;3.13;67.94;96825.88;5028768;28;20275;-79
2022/02/27 04:17:17;;;;;;;9.73;4.87;;;;;;;3.20;67.84;96827.13;5029729;28;20226;-79
2022/02/27 04:19:44;;;;;;;9.27;5.00;;;;;;;3.26;67.06;96824.19;5029317;28;21916;-79
2022/02/27 04:22:12;;;;;;;9.13;4.70;;;;;;;3.33;67.29;96827.94;5029341;28;20570;-79
2022/02/27 04:24:38;;;;;;;9.27;4.97;;;;;;;3.42;66.87;96831.63;5028766;28;20233;-78
2022/02/27 04:27:04;;;;;;;9.70;4.90;;;;;;;3.31;66.64;96824.69;5029046;28;20735;-78
2022/02/27 04:29:31;;;;;;;7.40;5.13;;;;;;;3.19;66.95;96825.50;5051247;23;20233;-87
2022/02/27 04:31:57;;;;;;;6.20;4.63;;;;;;;3.09;67.75;96827.00;5030493;28;20213;-83
2022/02/27 04:34:24;;;;;;;9.03;4.97;;;;;;;2.86;68.38;96817.53;5029815;28;20233;-85
2022/02/27 04:36:50;;;;;;;10.17;4.93;;;;;;;2.77;68.71;96818.91;5030966;28;20194;-86
2022/02/27 04:39:18;;;;;;;6.23;4.70;;;;;;;2.73;69.32;96809.84;5030588;28;20225;-82
2022/02/27 04:41:45;;;;;;;7.53;4.70;;;;;;;2.83;68.69;96798.19;5030086;28;20268;-86
2022/02/27 04:44:11;;;;;;;9.40;4.97;;;;;;;2.82;68.59;96805.91;5025318;28;20230;-83
2022/02/27 04:46:38;;;;;;;8.90;5.20;;;;;;;2.60;69.80;96812.38;5030519;28;20256;-88
2022/02/27 04:49:04;;;;;;;7.00;4.83;;;;;;;2.54;69.77;96810.19;5031491;28;20222;-86
2022/02/27 04:51:31;;;;;;;6.20;4.83;;;;;;;2.57;70.27;96815.09;5030161;28;20214;-85
2022/02/27 04:53:57;;;;;;;8.33;4.60;;;;;;;2.54;70.27;96822.09;5030081;28;20221;-88
2022/02/27 04:56:25;;;;;;;7.80;4.80;;;;;;;2.56;70.01;96820.28;5030464;28;20198;-87
2022/02/27 04:58:52;;;;;;;6.47;4.60;;;;;;;2.68;69.86;96820.34;5030089;28;20210;-86
2022/02/27 05:01:18;;;;;;;7.97;4.77;;;;;;;2.85;69.06;96818.44;5029702;28;20194;-86
2022/02/27 05:03:44;;;;;;;7.27;4.83;;;;;;;2.89;68.69;96818.13;5029729;28;20220;-85
2022/02/27 05:06:11;;;;;;;8.60;4.90;;;;;;;2.72;69.24;96813.28;5032633;28;20198;-84
2022/02/27 05:08:38;;;;;;;8.40;4.70;;;;;;;2.61;69.65;96819.06;5033962;28;20268;-85
2022/02/27 05:11:07;;;;;;;8.03;4.83;;;;;;;2.36;71.11;96817.25;5034370;28;20202;-86
2022/02/27 05:13:35;;;;;;;7.97;4.87;;;;;;;2.42;70.77;96819.44;5031237;28;20230;-86
2022/02/27 05:16:02;;;;;;;8.33;4.93;;;;;;;2.53;70.50;96821.28;5034628;28;20210;-87
2022/02/27 05:18:28;;;;;;;8.40;5.33;;;;;;;2.53;70.80;96821.28;5034517;28;20225;-86
2022/02/27 05:20:55;;;;;;;9.27;5.07;;;;;;;2.62;70.21;96820.72;5033564;28;20784;-85
2022/02/27 05:23:21;;;;;;;8.13;5.27;;;;;;;2.63;69.97;96813.91;5033720;28;20236;-88
2022/02/27 05:25:48;;;;;;;6.23;4.77;;;;;;;2.76;69.28;96817.28;5034028;28;20213;-86
2022/02/27 05:28:14;;;;;;;8.53;5.63;;;;;;;2.87;69.38;96812.34;5033447;28;20230;-85
2022/02/27 05:30:42;;;;;;;7.70;5.47;;;;;;;2.94;68.79;96813.56;5034343;28;20208;-86
2022/02/27 05:33:16;;;;;;;8.80;5.37;;;;;;;2.97;68.40;96815.09;5033006;28;20233;-86
2022/02/27 05:35:43;;;;;;;8.60;5.40;;;;;;;2.98;68.66;96835.34;5033475;28;20198;-83
2022/02/27 05:38:09;;;;;;;10.60;5.70;;;;;;;2.91;69.17;96828.19;5033277;28;20221;-84
2022/02/27 05:40:36;;;;;;;8.40;5.10;;;;;;;2.78;69.35;96833.25;5032955;28;20680;-85
2022/02/27 05:43:05;;;;;;;7.73;5.47;;;;;;;2.88;68.95;96833.50;5033020;28;20230;-86
2022/02/27 05:45:31;;;;;;;8.53;5.27;;;;;;;2.84;69.50;96827.78;5034309;28;20588;-86
2022/02/27 05:47:59;;;;;;;7.73;5.40;;;;;;;2.96;68.71;96832.09;5032167;28;20198;-85
2022/02/27 05:50:26;;;;;;;9.33;5.63;;;;;;;2.90;68.92;96829.91;5034363;28;20198;-85
2022/02/27 05:52:52;;;;;;;9.03;5.50;;;;;;;2.98;68.75;96835.34;5033558;28;20261;-86
2022/02/27 05:55:19;;;;;;;6.37;4.93;;;;;;;3.08;68.13;96841.44;5034099;28;20224;-86
2022/02/27 05:57:45;;;;;;;5.30;4.80;;;;;;;3.17;67.69;96845.16;5032431;28;20539;-84
2022/02/27 06:00:13;;;;;;;6.73;4.93;;;;;;;3.09;68.03;96844.81;5034539;28;20199;-87
2022/02/27 06:02:41;;;;;;;9.57;5.73;;;;;;;2.97;68.92;96853.25;5033897;28;20202;-84
2022/02/27 06:05:09;;;;;;;9.23;5.70;;;;;;;2.68;69.61;96850.84;5034120;28;20209;-88
2022/02/27 06:07:36;;;;;;;7.37;5.30;;;;;;;2.67;69.86;96856.84;5034088;28;20198;-84
2022/02/27 06:10:03;;;;;;;8.77;5.57;;;;;;;2.50;70.91;96859.63;5033150;28;20264;-85
2022/02/27 06:12:29;;;;;;;8.87;5.43;;;;;;;2.66;70.50;96869.66;5033024;28;20198;-83
2022/02/27 06:14:56;;;;;;;8.10;5.53;;;;;;;2.77;70.51;96862.16;5032421;28;20217;-86
2022/02/27 06:17:22;;;;;;;7.50;5.37;;;;;;;2.76;70.22;96858.78;5033646;28;20197;-85
2022/02/27 06:19:50;;;;;;;8.93;5.70;;;;;;;2.63;70.76;96859.66;5033608;28;20222;-83
2022/02/27 06:22:18;;;;;;;7.10;5.30;;;;;;;2.38;71.88;96873.06;5033807;28;20197;-83
2022/02/27 06:24:44;;;;;;;7.63;5.27;;;;;;;2.24;72.48;96868.03;5033034;28;20632;-83
2022/02/27 06:27:11;;;;;;;6.47;5.03;;;;;;;2.17;73.24;96866.75;5033489;28;20209;-86
2022/02/27 06:29:37;;;;;;;7.77;5.27;;;;;;;2.10;73.39;96878.22;5034138;28;20759;-86
2022/02/27 06:32:04;;;;;;;9.90;5.60;;;;;;;2.17;73.18;96870.13;5033639;28;20253;-87
2022/02/27 06:34:31;;;;;;;8.13;4.93;;;;;;;2.04;73.48;96876.84;5032498;28;20644;-86
2022/02/27 06:36:58;;;;;;;9.30;5.30;;;;;;;1.94;74.63;96880.84;5033596;28;20867;-87
2022/02/27 06:39:25;;;;;;;8.43;5.30;;;;;;;1.99;74.29;96882.22;5033088;28;20214;-82
2022/02/27 06:41:52;;;;;;;10.10;5.07;;;;;;;2.05;74.18;96886.13;5032777;28;20213;-82
2022/02/27 06:44:18;;;;;;;7.03;5.80;;;;;;;2.38;73.36;96891.69;5032228;28;20221;-85
2022/02/27 06:46:45;;;;;;;10.63;5.00;;;;;;;2.73;71.68;96892.03;5034778;28;20205;-85
2022/02/27 06:49:11;;;;;;;8.77;5.20;;;;;;;3.07;70.21;96887.38;5033327;28;20218;-85
2022/02/27 06:51:38;;;;;;;8.40;5.60;;;;;;;3.30;68.88;96881.59;5033075;28;20198;-83
2022/02/27 06:54:04;;;;;;;7.13;5.27;;;;;;;3.41;68.75;96878.38;5033171;28;20237;-87
2022/02/27 06:56:32;;;;;;;7.43;5.50;;;;;;;3.77;67.36;96887.84;5033631;28;20194;-84
2022/02/27 06:58:58;;;;;;;8.63;5.77;;;;;;;4.05;66.07;96877.41;5032289;28;20210;-83
2022/02/27 07:01:25;;;;;;;9.93;5.60;;;;;;;4.38;65.06;96879.41;5032770;28;20195;-85
2022/02/27 07:03:51;;;;;;;8.27;5.40;;;;;;;4.83;71.39;96872.78;5031276;28;20236;-83
2022/02/27 07:06:18;;;;;;;6.87;5.23;;;;;;;5.27;62.55;96873.88;5032109;28;20194;-82
2022/02/27 07:08:47;;;;;;;8.13;5.57;;;;;;;5.24;61.65;96875.81;5026963;28;20222;-84
2022/02/27 07:11:13;;;;;;;6.33;5.23;;;;;;;5.53;60.79;96885.56;5019683;28;20206;-86
2022/02/27 07:13:41;;;;;;;6.67;5.70;;;;;;;5.85;59.85;96879.78;5017607;28;20218;-85
2022/02/27 07:16:08;;;;;;;8.60;6.03;;;;;;;5.78;59.35;96886.25;5031413;28;20839;-84
2022/02/27 07:18:34;;;;;;;6.23;5.27;;;;;;;5.63;60.04;96893.34;5032010;28;20218;-88
2022/02/27 07:21:01;;;;;;;10.53;6.73;;;;;;;5.59;59.52;96893.66;5030833;28;20198;-87
2022/02/27 07:23:27;;;;;;;25.13;18.47;;;;;;;5.75;60.22;96895.00;5035798;28;20229;-86
2022/02/27 07:25:53;;;;;;;10.47;7.47;;;;;;;5.96;59.27;96900.28;5030761;28;20206;-82
2022/02/27 07:28:20;;;;;;;7.17;5.53;;;;;;;6.12;59.04;96905.03;5030330;28;20233;-85
2022/02/27 07:30:48;;;;;;;6.63;5.33;;;;;;;6.12;58.40;96912.72;5031120;28;20660;-85
2022/02/27 07:33:14;;;;;;;8.83;5.80;;;;;;;6.02;58.38;96906.66;5030885;28;20218;-85
2022/02/27 07:35:41;;;;;;;8.40;5.97;;;;;;;5.85;58.58;96915.56;5030729;28;20202;-86
2022/02/27 07:38:07;;;;;;;7.30;5.67;;;;;;;5.69;59.24;96912.50;5031019;28;20226;-88
2022/02/27 07:40:33;;;;;;;7.37;5.60;;;;;;;5.77;58.89;96915.31;5028502;28;20202;-87
2022/02/27 07:43:00;;;;;;;8.80;6.23;;;;;;;6.02;58.74;96921.97;5030942;28;20232;-83
2022/02/27 07:45:26;;;;;;;8.20;5.87;;;;;;;6.45;58.21;96928.03;5030999;28;20283;-85
2022/02/27 07:47:56;;;;;;;6.30;5.50;;;;;;;6.69;56.34;96927.06;5032649;28;20194;-87
2022/02/27 07:50:22;;;;;;;6.83;5.63;;;;;;;6.92;55.04;96913.28;5031533;28;20210;-82
2022/02/27 07:52:49;;;;;;;8.67;6.07;;;;;;;7.13;55.54;96915.88;5030453;28;20213;-84
2022/02/27 07:55:18;;;;;;;7.60;5.93;;;;;;;7.28;54.62;96922.34;5032285;28;20202;-88
2022/02/27 07:57:44;;;;;;;7.10;5.87;;;;;;;7.30;54.73;96924.78;5032767;28;20194;-82
2022/02/27 08:00:12;;;;;;;6.93;5.73;;;;;;;7.45;54.25;96921.00;5031595;28;20774;-87
2022/02/27 08:02:39;;;;;;;8.20;6.00;;;;;;;7.23;54.00;96924.47;5032231;28;20646;-88
2022/02/27 08:05:08;;;;;;;11.07;8.70;;;;;;;7.09;54.56;96917.06;5032047;28;20205;-87
2022/02/27 08:07:36;;;;;;;13.50;9.73;;;;;;;7.49;54.10;96912.94;5032003;28;20862;-87
2022/02/27 08:10:05;;;;;;;7.97;5.97;;;;;;;7.67;52.47;96915.75;5030190;28;20241;-87
2022/02/27 08:12:32;;;;;;;8.70;6.07;;;;;;;7.58;53.36;96921.63;5030623;28;20194;-85
2022/02/27 08:14:59;;;;;;;9.63;6.10;;;;;;;7.34;52.84;96921.84;5031110;28;20206;-87
2022/02/27 08:17:25;;;;;;;7.33;6.10;;;;;;;6.96;54.23;96921.53;5031395;28;20190;-87
2022/02/27 08:19:52;;;;;;;8.07;6.07;;;;;;;7.39;53.79;96924.03;5030871;28;20205;-88
2022/02/27 08:22:20;;;;;;;6.40;5.53;;;;;;;7.70;52.52;96912.91;5030542;28;20224;-83
2022/02/27 08:24:48;;;;;;;7.10;6.10;;;;;;;7.56;52.93;96914.03;5029203;28;20217;-88
2022/02/27 08:27:14;;;;;;;9.37;5.70;;;;;;;7.54;52.73;96913.34;5030998;28;20232;-87
2022/02/27 08:29:42;;;;;;;7.53;6.43;;;;;;;7.29;52.98;96913.72;5029450;28;20218;-85
2022/02/27 08:32:08;;;;;;;10.17;6.13;;;;;;;7.50;51.95;96913.75;5029382;28;20217;-85
2022/02/27 08:34:35;;;;;;;8.00;5.90;;;;;;;7.55;52.18;96909.84;5015985;28;20222;-89
2022/02/27 08:37:01;;;;;;;7.47;6.07;;;;;;;8.06;51.71;96911.66;5031557;28;20689;-85
2022/02/27 08:39:29;;;;;;;8.30;5.93;;;;;;;8.57;50.62;96913.34;5030055;28;20224;-83
2022/02/27 08:41:56;;;;;;;6.63;5.60;;;;;;;8.38;50.05;96911.53;5030450;28;20201;-84
2022/02/27 08:44:22;;;;;;;5.80;5.20;;;;;;;8.23;49.69;96905.09;5031063;28;20226;-86
2022/02/27 08:46:52;;;;;;;7.37;5.73;;;;;;;8.30;49.92;96911.31;5031201;28;20209;-86
2022/02/27 08:49:18;;;;;;;6.80;4.93;;;;;;;8.13;50.03;96915.31;5024744;28;20218;-85
2022/02/27 08:51:46;;;;;;;8.60;5.80;;;;;;;8.66;49.94;96909.97;5030584;28;20596;-87
2022/02/27 08:54:12;;;;;;;7.50;5.73;;;;;;;8.85;48.59;96912.56;5031511;28;20287;-86
2022/02/27 08:56:40;;;;;;;16.27;12.60;;;;;;;9.29;47.88;96906.13;5031422;28;20701;-88
2022/02/27 08:59:07;;;;;;;7.43;5.70;;;;;;;9.32;47.17;96905.84;5031262;28;20210;-85
2022/02/27 09:01:33;;;;;;;6.97;5.20;;;;;;;9.02;46.65;96908.56;5030384;28;20800;-83
2022/02/27 09:03:59;;;;;;;6.93;5.07;;;;;;;8.97;46.97;96908.94;5030082;28;20234;-87
2022/02/27 09:06:27;;;;;;;5.47;4.97;;;;;;;8.54;46.48;96890.50;5025432;28;20202;-84
2022/02/27 09:08:53;;;;;;;6.60;5.00;;;;;;;7.93;47.42;96921.28;5029273;28;20218;-86
2022/02/27 09:11:20;;;;;;;6.33;4.70;;;;;;;8.17;46.71;96905.59;5032464;28;20564;-86
2022/02/27 09:13:48;;;;;;;5.10;4.33;;;;;;;8.91;45.98;96906.09;5033032;28;20234;-85
2022/02/27 09:16:14;;;;;;;5.87;4.47;;;;;;;8.50;46.04;96913.03;5036769;28;20194;-85
2022/02/27 09:18:41;;;;;;;5.73;4.60;;;;;;;8.79;44.68;96902.84;5030896;28;20306;-83
2022/02/27 09:21:08;;;;;;;6.37;4.47;;;;;;;8.46;45.11;96905.75;5032457;28;20834;-83
2022/02/27 09:23:34;;;;;;;5.73;4.47;;;;;;;8.74;45.26;96904.19;5030075;28;20229;-86
2022/02/27 09:26:01;;;;;;;5.97;4.47;;;;;;;8.80;44.92;96909.59;5031057;28;21957;-85
2022/02/27 09:28:28;;;;;;;6.77;4.63;;;;;;;8.81;44.64;96903.53;5030724;28;20248;-83
2022/02/27 09:30:56;;;;;;;6.87;3.90;;;;;;;8.83;43.71;96898.25;5029918;28;20214;-88
2022/02/27 09:33:22;;;;;;;5.80;4.33;;;;;;;8.89;43.23;96893.38;5030352;28;20253;-86
2022/02/27 09:35:49;;;;;;;5.50;4.57;;;;;;;9.23;43.26;96893.00;5027054;28;20206;-84
2022/02/27 09:38:17;;;;;;;5.37;4.57;;;;;;;9.77;42.23;96892.41;5030078;28;20232;-87
2022/02/27 09:40:43;;;;;;;4.20;3.80;;;;;;;9.65;41.19;96889.16;5030722;28;20198;-86
2022/02/27 09:43:09;;;;;;;5.43;4.20;;;;;;;9.31;42.14;96888.81;5029778;28;20230;-85
2022/02/27 09:45:37;;;;;;;5.33;4.20;;;;;;;8.76;43.38;96895.41;5031449;28;20198;-85
2022/02/27 09:48:05;;;;;;;7.17;4.93;;;;;;;8.24;45.12;96894.72;5029850;28;20209;-86
2022/02/27 09:50:34;;;;;;;6.63;4.40;;;;;;;8.52;44.83;96900.06;5030481;28;20257;-87
2022/02/27 09:53:01;;;;;;;4.90;4.37;;;;;;;9.03;44.32;96894.75;5034384;28;20229;-88
2022/02/27 09:55:27;;;;;;;4.73;4.07;;;;;;;9.49;42.27;96891.47;5034951;28;20198;-87
2022/02/27 09:57:54;;;;;;;4.90;4.07;;;;;;;9.94;41.39;96891.66;5033631;28;20711;-87
2022/02/27 10:00:21;;;;;;;5.23;3.90;;;;;;;10.20;40.68;96889.28;5033923;28;20202;-87
2022/02/27 10:03:25;;;;;;;5.50;4.30;;;;;;;9.61;39.73;96881.88;5035078;28;20565;-87
2022/02/27 10:05:51;;;;;;;5.23;4.10;;;;;;;9.73;41.10;96885.09;4974088;28;20251;-87
2022/02/27 10:08:18;;;;;;;4.87;4.23;;;;;;;9.16;42.02;96886.78;5023631;28;20225;-88
2022/02/27 10:10:55;;;;;;;5.53;4.07;;;;;;;9.20;41.98;96888.94;5035316;28;20592;-87
2022/02/27 10:13:32;;;;;;;4.33;3.80;;;;;;;8.85;40.68;96893.81;5029973;28;20213;-86
2022/02/27 10:16:03;;;;;;;5.33;3.80;;;;;;;8.59;41.31;96888.34;5036291;28;20198;-84
2022/02/27 10:18:38;;;;;;;4.87;3.87;;;;;;;8.09;41.04;96892.59;5036281;28;20218;-87
2022/02/27 10:21:04;;;;;;;4.30;3.80;;;;;;;8.49;41.07;96888.31;5026633;28;20205;-84
2022/02/27 10:23:31;;;;;;;4.00;3.63;;;;;;;8.41;41.35;96897.63;5033890;28;20225;-83
2022/02/27 10:25:57;;;;;;;4.40;4.00;;;;;;;7.98;41.62;96899.44;5033212;28;20214;-86
2022/02/27 10:28:24;;;;;;;5.57;4.60;;;;;;;7.77;42.13;96885.84;5033564;28;20594;-84
2022/02/27 10:30:51;;;;;;;5.60;4.70;;;;;;;7.07;44.16;96881.34;5030562;28;20233;-82
2022/02/27 10:33:17;;;;;;;6.03;4.83;;;;;;;6.50;45.83;96896.97;5032136;28;20701;-86
2022/02/27 10:35:47;;;;;;;5.10;4.60;;;;;;;6.55;46.26;96890.56;5034527;28;20198;-86
2022/02/27 10:38:17;;;;;;;6.20;5.10;;;;;;;6.79;46.35;96882.72;5033679;28;20229;-85
2022/02/27 10:40:48;;;;;;;6.87;5.17;;;;;;;7.17;45.05;96878.84;5033189;28;20577;-87
2022/02/27 10:43:16;;;;;;;5.27;4.77;;;;;;;7.40;43.83;96877.00;5033356;28;20273;-87
2022/02/27 10:45:44;;;;;;;6.70;5.10;;;;;;;7.58;43.27;96876.28;5034941;28;20336;-86
2022/02/27 10:48:13;;;;;;;5.73;4.83;;;;;;;7.62;43.49;96867.41;5034374;28;20226;-86
2022/02/27 10:50:40;;;;;;;6.57;4.97;;;;;;;7.82;43.17;96863.19;5033619;28;20222;-87
2022/02/27 10:53:08;;;;;;;6.00;5.17;;;;;;;7.84;42.91;96866.47;5033739;28;20693;-86
2022/02/27 10:55:35;;;;;;;7.30;5.50;;;;;;;7.58;42.97;96871.16;5028906;28;21163;-83
2022/02/27 10:58:03;;;;;;;5.73;4.87;;;;;;;7.40;43.13;96871.88;5031978;28;20259;-86
2022/02/27 11:00:31;;;;;;;5.37;4.63;;;;;;;7.37;41.95;96865.22;5039277;28;20190;-83
2022/02/27 11:02:59;;;;;;;4.83;4.13;;;;;;;7.34;41.99;96859.53;5033451;28;20232;-87
2022/02/27 11:05:28;;;;;;;4.40;4.00;;;;;;;7.15;41.63;96868.72;5033123;28;20680;-85
2022/02/27 11:07:56;;;;;;;5.20;4.43;;;;;;;7.26;41.45;96865.31;5033042;28;20720;-83
2022/02/27 11:10:26;;;;;;;4.77;4.27;;;;;;;7.22;42.05;96856.25;5042373;28;20218;-85
2022/02/27 11:12:55;;;;;;;5.00;4.50;;;;;;;7.11;42.07;96858.88;5033213;28;20603;-86
2022/02/27 11:15:23;;;;;;;5.63;3.93;;;;;;;6.80;42.63;96855.38;5032756;28;20226;-85
2022/02/27 11:17:51;;;;;;;5.53;4.47;;;;;;;6.81;43.27;96854.44;5029204;28;20230;-87
2022/02/27 11:20:20;;;;;;;5.57;4.80;;;;;;;7.00;43.28;96848.66;5032147;28;20218;-82
2022/02/27 11:22:47;;;;;;;5.90;4.67;;;;;;;6.87;43.78;96864.19;5031727;28;20203;-86
2022/02/27 11:25:17;;;;;;;6.77;5.13;;;;;;;6.64;44.62;96858.31;5032933;28;20580;-86
2022/02/27 11:27:48;;;;;;;5.67;5.10;;;;;;;6.82;45.22;96851.75;5034469;28;20197;-87
2022/02/27 11:30:18;;;;;;;5.10;4.60;;;;;;;7.01;44.59;96847.72;5032692;28;20222;-86
2022/02/27 11:32:48;;;;;;;6.80;4.77;;;;;;;7.44;43.94;96837.38;5033079;28;20199;-86
2022/02/27 11:35:34;;;;;;;5.63;5.00;;;;;;;7.65;42.78;96838.16;5033749;28;20652;-85
2022/02/27 11:38:00;;;;;;;7.37;5.23;;;;;;;7.79;43.10;96830.13;5033838;28;20198;-87
2022/02/27 11:40:40;;;;;;;5.50;4.93;;;;;;;7.70;42.65;96832.66;5031873;28;20206;-86
2022/02/27 11:43:07;;;;;;;6.13;4.90;;;;;;;8.09;42.36;96831.84;5029391;28;20238;-85